createdAt,value
2022-09-21T01:12:58.406Z,11.1
2022-09-21T01:19:58.429Z,10.8
2022-09-21T02:19:58.401Z,10.6
2022-09-21T02:20:58.400Z,10.6
2022-09-21T02:36:58.386Z,10.5
2022-09-21T03:19:58.398Z,10.4
2022-09-21T03:37:58.400Z,10.4
2022-09-21T04:19:58.380Z,10.1
2022-09-21T06:09:58.383Z,10.7
2022-09-21T06:13:58.372Z,10.9
2022-09-21T06:14:58.370Z,10.9
2022-09-21T06:15:58.375Z,11
2022-09-21T06:16:58.412Z,11.1
2022-09-21T06:17:58.396Z,11.2
2022-09-21T06:18:58.377Z,11.3
2022-09-21T06:19:58.373Z,11.4
2022-09-21T06:20:58.380Z,11.5
2022-09-21T06:22:58.374Z,11.6
2022-09-21T06:23:58.376Z,11.7
2022-09-21T06:24:58.378Z,11.8
2022-09-21T06:26:58.376Z,11.9
2022-09-21T06:27:58.377Z,12
2022-09-21T06:28:58.373Z,12.1
2022-09-21T06:29:58.369Z,12.2
2022-09-21T06:30:58.496Z,12.2
2022-09-21T06:31:58.372Z,12.3
2022-09-21T06:32:58.376Z,12.3
2022-09-21T06:33:58.369Z,12.4
2022-09-21T06:34:58.375Z,12.4
2022-09-21T06:35:58.378Z,12.5
2022-09-21T06:37:58.378Z,12.6
2022-09-21T06:38:58.371Z,12.7
2022-09-21T06:39:58.574Z,12.8
2022-09-21T06:40:58.380Z,12.9
2022-09-21T06:41:58.372Z,13
2022-09-21T06:42:58.371Z,13
2022-09-21T06:43:58.419Z,13.1
2022-09-21T06:45:58.423Z,13.2
2022-09-21T06:47:58.383Z,13.4
2022-09-21T06:48:58.389Z,13.5
2022-09-21T06:49:58.429Z,13.7
2022-09-21T06:50:58.378Z,13.9
2022-09-21T06:51:58.376Z,14.1
2022-09-21T06:52:58.392Z,14.4
2022-09-21T06:53:58.377Z,14.8
2022-09-21T06:54:58.368Z,15.1
2022-09-21T06:55:58.371Z,15.4
2022-09-21T06:57:00.217Z,15.7
2022-09-21T06:57:58.371Z,15.9
2022-09-21T06:58:58.374Z,16
2022-09-21T06:59:58.386Z,16.1
2022-09-21T07:00:58.493Z,16.3
2022-09-21T07:01:58.674Z,16.3
2022-09-21T07:02:58.449Z,16.3
2022-09-21T07:03:58.373Z,16.4
2022-09-21T07:05:58.376Z,16.4
2022-09-21T07:07:01.267Z,16.4
2022-09-21T07:10:06.606Z,16.4
2022-09-21T07:10:58.383Z,16.4
2022-09-21T07:11:58.377Z,16.4
2022-09-21T07:12:58.389Z,16.4
2022-09-21T07:13:58.463Z,16.3
2022-09-21T07:14:58.384Z,16.3
2022-09-21T07:15:58.382Z,16.4
2022-09-21T07:16:58.376Z,16.5
2022-09-21T07:18:05.965Z,16.6
2022-09-21T07:19:10.051Z,16.7
2022-09-21T07:19:58.411Z,16.7
2022-09-21T07:20:58.374Z,16.6
2022-09-21T07:21:58.381Z,16.6
2022-09-21T07:22:58.381Z,16.5
2022-09-21T07:23:58.384Z,16.5
2022-09-21T07:24:58.380Z,16.5
2022-09-21T07:26:58.377Z,16.4
2022-09-21T07:27:58.380Z,16.3
2022-09-21T07:28:58.462Z,16.3
2022-09-21T07:29:58.386Z,16.2
2022-09-21T07:30:58.387Z,16.2
2022-09-21T07:31:58.410Z,16.2
2022-09-21T07:32:58.379Z,16.1
2022-09-21T07:33:58.377Z,16.1
2022-09-21T07:34:58.385Z,16.1
2022-09-21T07:35:58.381Z,16.1
2022-09-21T07:36:58.389Z,16
2022-09-21T07:37:58.376Z,16
2022-09-21T07:38:58.394Z,16.1
2022-09-21T07:39:58.401Z,16.2
2022-09-21T07:40:58.397Z,16.4
2022-09-21T07:41:58.385Z,16.6
2022-09-21T07:43:58.443Z,17.2
2022-09-21T07:45:04.799Z,17.5
2022-09-21T07:45:58.475Z,17.7
2022-09-21T07:46:58.399Z,17.9
2022-09-21T07:47:58.384Z,18
2022-09-21T07:48:58.387Z,18.1
2022-09-21T07:49:58.407Z,18.2
2022-09-21T07:52:03.532Z,18.4
2022-09-21T07:52:58.397Z,18.5
2022-09-21T07:53:58.382Z,18.5
2022-09-21T07:54:58.462Z,18.5
2022-09-21T07:55:58.385Z,18.2
2022-09-21T07:56:58.384Z,18
2022-09-21T07:57:58.386Z,17.9
2022-09-21T07:58:58.382Z,17.9
2022-09-21T07:59:58.381Z,18
2022-09-21T08:01:58.441Z,18.2
2022-09-21T08:02:58.390Z,18.2
2022-09-21T08:03:58.383Z,18.1
2022-09-21T08:04:58.424Z,18.3
2022-09-21T08:05:58.398Z,18.5
2022-09-21T08:06:58.407Z,18.7
2022-09-21T08:08:58.455Z,19.2
2022-09-21T08:09:58.381Z,19.4
2022-09-21T08:10:58.387Z,19.6
2022-09-21T08:11:58.383Z,19.8
2022-09-21T08:12:58.394Z,20
2022-09-21T08:13:58.548Z,20.2
2022-09-21T08:14:58.384Z,20.4
2022-09-21T08:15:58.464Z,20.5
2022-09-21T08:16:58.383Z,20.6
2022-09-21T08:17:58.379Z,20.6
2022-09-21T08:18:58.386Z,20.7
2022-09-21T08:20:59.161Z,21
2022-09-21T08:21:58.389Z,21.1
2022-09-21T08:22:58.395Z,21.3
2022-09-21T08:23:58.395Z,21.7
2022-09-21T08:24:58.458Z,22.1
2022-09-21T08:25:58.482Z,22.5
2022-09-21T08:26:58.391Z,22.9
2022-09-21T08:27:58.403Z,23.1
2022-09-21T08:29:58.397Z,23.6
2022-09-21T08:30:58.385Z,23.7
2022-09-21T08:31:58.547Z,23.9
2022-09-21T08:32:58.397Z,24.2
2022-09-21T08:33:58.390Z,24.6
2022-09-21T08:34:58.393Z,25
2022-09-21T08:35:58.514Z,25.5
2022-09-21T08:36:58.392Z,25.9
2022-09-21T08:37:58.491Z,26.4
2022-09-21T08:38:58.471Z,26.8
2022-09-21T08:39:58.392Z,27.3
2022-09-21T08:41:58.387Z,28.4
2022-09-21T08:42:58.392Z,28.8
2022-09-21T08:43:58.401Z,29.1
2022-09-21T08:44:58.404Z,29.3
2022-09-21T08:45:58.460Z,29.7
2022-09-21T08:46:58.443Z,30.2
2022-09-21T08:47:58.393Z,30.6
2022-09-21T08:48:58.400Z,31
2022-09-21T08:49:58.401Z,31.3
2022-09-21T08:50:58.479Z,31.5
2022-09-21T08:51:58.397Z,31.9
2022-09-21T08:52:58.395Z,32.1
2022-09-21T08:53:58.456Z,32.1
2022-09-21T08:54:58.393Z,32.4
2022-09-21T08:55:58.397Z,32.6
2022-09-21T08:57:58.414Z,32.8
2022-09-21T08:58:58.401Z,33
2022-09-21T08:59:58.407Z,33.1
2022-09-21T09:01:00.475Z,33.3
2022-09-21T09:02:58.425Z,33.8
2022-09-21T09:03:59.435Z,34.1
2022-09-21T09:04:58.405Z,34.3
2022-09-21T09:06:58.404Z,34.9
2022-09-21T09:07:58.408Z,35.2
2022-09-21T09:08:58.543Z,35.3
2022-09-21T09:09:58.408Z,35
2022-09-21T09:10:58.418Z,35.1
2022-09-21T09:11:58.407Z,34.7
2022-09-21T09:12:58.402Z,33.9
2022-09-21T09:13:58.408Z,32.8
2022-09-21T09:14:58.407Z,32.1
2022-09-21T09:15:58.611Z,31
2022-09-21T09:16:58.498Z,30.4
2022-09-21T09:17:58.411Z,30.2
2022-09-21T09:18:58.494Z,30.2
2022-09-21T09:19:58.402Z,30.5
2022-09-21T09:21:58.424Z,31.2
2022-09-21T09:22:58.412Z,31.6
2022-09-21T09:23:58.405Z,31.6
2022-09-21T09:24:58.411Z,31.3
2022-09-21T09:25:58.418Z,30.9
2022-09-21T09:26:58.622Z,30.2
2022-09-21T09:27:58.416Z,29.6
2022-09-21T09:28:58.416Z,29.3
2022-09-21T09:30:02.815Z,29
2022-09-21T09:30:58.466Z,28.7
2022-09-21T09:31:58.425Z,28.7
2022-09-21T09:32:58.431Z,29.1
2022-09-21T09:33:58.521Z,29.6
2022-09-21T09:34:58.418Z,30.1
2022-09-21T09:35:58.417Z,30.6
2022-09-21T09:36:59.608Z,30.9
2022-09-21T09:37:58.420Z,31
2022-09-21T09:38:58.417Z,30.7
2022-09-21T09:39:58.777Z,30.4
2022-09-21T09:41:58.444Z,29.6
2022-09-21T09:43:02.618Z,29.6
2022-09-21T09:43:58.424Z,29.8
2022-09-21T09:44:58.423Z,30.3
2022-09-21T09:45:58.423Z,30.8
2022-09-21T09:46:58.513Z,31.1
2022-09-21T09:47:58.423Z,31.1
2022-09-21T09:48:58.424Z,30.8
2022-09-21T09:49:58.423Z,30.3
2022-09-21T09:50:58.435Z,29.8
2022-09-21T09:51:58.416Z,29.2
2022-09-21T09:52:58.427Z,28.8
2022-09-21T09:53:58.425Z,28.3
2022-09-21T09:54:58.421Z,27.9
2022-09-21T09:55:58.421Z,27.6
2022-09-21T09:56:58.435Z,27.3
2022-09-21T09:57:58.499Z,26.9
2022-09-21T09:58:58.423Z,26.6
2022-09-21T09:59:58.421Z,26.2
2022-09-21T10:00:59.122Z,25.8
2022-09-21T10:02:58.427Z,25.2
2022-09-21T10:03:58.566Z,25
2022-09-21T10:04:58.430Z,24.8
2022-09-21T10:05:58.433Z,24.6
2022-09-21T10:06:58.433Z,24.4
2022-09-21T10:07:58.425Z,24.3
2022-09-21T10:08:58.431Z,24.1
2022-09-21T10:09:58.430Z,24.1
2022-09-21T10:10:58.519Z,24
2022-09-21T10:11:58.431Z,23.8
2022-09-21T10:12:58.425Z,23.7
2022-09-21T10:13:58.437Z,23.7
2022-09-21T10:14:58.442Z,23.6
2022-09-21T10:15:58.469Z,23.5
2022-09-21T10:16:58.426Z,23.5
2022-09-21T10:17:58.430Z,23.4
2022-09-21T10:18:58.429Z,23.3
2022-09-21T10:19:58.433Z,23.2
2022-09-21T10:21:58.424Z,23.1
2022-09-21T10:23:58.527Z,23.1
2022-09-21T10:24:58.440Z,23
2022-09-21T10:25:58.438Z,22.9
2022-09-21T10:26:58.438Z,22.9
2022-09-21T10:27:58.432Z,22.8
2022-09-21T10:28:58.566Z,22.7
2022-09-21T10:29:58.429Z,22.6
2022-09-21T10:30:58.511Z,22.5
2022-09-21T10:31:58.432Z,22.3
2022-09-21T10:32:58.433Z,22.2
2022-09-21T10:33:58.438Z,22.2
2022-09-21T10:35:58.437Z,22.1
2022-09-21T10:36:58.441Z,22.1
2022-09-21T10:37:58.439Z,22
2022-09-21T10:38:58.508Z,21.9
2022-09-21T10:39:58.440Z,21.9
2022-09-21T10:40:58.450Z,21.9
2022-09-21T10:41:58.463Z,21.9
2022-09-21T10:42:58.437Z,21.9
2022-09-21T10:44:58.436Z,21.8
2022-09-21T10:45:58.535Z,21.8
2022-09-21T10:46:58.442Z,21.7
2022-09-21T10:47:58.445Z,21.7
2022-09-21T10:48:58.436Z,21.6
2022-09-21T10:49:58.440Z,21.6
2022-09-21T10:50:58.440Z,21.6
2022-09-21T10:51:58.479Z,21.5
2022-09-21T10:52:58.445Z,21.5
2022-09-21T10:53:58.531Z,21.5
2022-09-21T10:54:58.440Z,21.5
2022-09-21T10:56:58.438Z,21.5
2022-09-21T10:57:58.442Z,21.4
2022-09-21T10:58:58.443Z,21.4
2022-09-21T10:59:58.443Z,21.4
2022-09-21T11:00:58.453Z,21.3
2022-09-21T11:01:58.535Z,21.3
2022-09-21T11:02:58.604Z,21.3
2022-09-21T11:03:58.443Z,21.3
2022-09-21T11:05:58.457Z,21.2
2022-09-21T11:06:58.449Z,21.2
2022-09-21T11:07:58.447Z,21.2
2022-09-21T11:08:58.440Z,21.2
2022-09-21T11:09:58.447Z,21.3
2022-09-21T11:10:58.445Z,21.3
2022-09-21T11:11:58.441Z,21.3
2022-09-21T11:12:58.476Z,21.3
2022-09-21T11:13:58.446Z,21.3
2022-09-21T11:14:58.448Z,21.3
2022-09-21T11:15:58.622Z,21.3
2022-09-21T11:16:58.441Z,21.4
2022-09-21T11:18:58.592Z,21.4
2022-09-21T11:19:58.442Z,21.5
2022-09-21T11:20:58.452Z,21.6
2022-09-21T11:21:58.447Z,21.8
2022-09-21T11:22:58.452Z,22.1
2022-09-21T11:23:58.447Z,22.6
2022-09-21T11:24:58.451Z,22.9
2022-09-21T11:26:58.443Z,23.5
2022-09-21T11:27:58.453Z,23.7
2022-09-21T11:28:58.492Z,23.9
2022-09-21T11:29:58.443Z,24.1
2022-09-21T11:30:58.486Z,24.3
2022-09-21T11:31:58.448Z,24.5
2022-09-21T11:32:58.453Z,24.7
2022-09-21T11:33:58.554Z,24.8
2022-09-21T11:34:58.476Z,24.8
2022-09-21T11:35:58.447Z,24.7
2022-09-21T11:36:58.451Z,24.5
2022-09-21T11:37:58.462Z,24.2
2022-09-21T11:38:58.447Z,23.9
2022-09-21T11:39:58.545Z,23.6
2022-09-21T11:40:58.488Z,23.4
2022-09-21T11:41:58.446Z,23.3
2022-09-21T11:42:58.445Z,23.2
2022-09-21T11:44:01.211Z,23.1
2022-09-21T11:44:58.449Z,23
2022-09-21T11:45:58.492Z,22.9
2022-09-21T11:46:58.458Z,22.8
2022-09-21T11:47:58.459Z,22.9
2022-09-21T11:48:58.454Z,22.8
2022-09-21T11:50:07.856Z,22.8
2022-09-21T11:50:58.479Z,22.7
2022-09-21T11:51:59.448Z,22.7
2022-09-21T11:52:58.451Z,22.6
2022-09-21T11:53:58.455Z,22.6
2022-09-21T11:54:58.460Z,22.5
2022-09-21T11:55:58.465Z,22.5
2022-09-21T11:56:58.525Z,22.4
2022-09-21T11:57:58.460Z,22.4
2022-09-21T11:58:58.471Z,22.4
2022-09-21T11:59:58.463Z,22.4
2022-09-21T12:00:58.456Z,22.4
2022-09-21T12:01:58.561Z,22.4
2022-09-21T12:02:58.458Z,22.4
2022-09-21T12:03:58.453Z,22.4
2022-09-21T12:04:58.459Z,22.3
2022-09-21T12:05:58.453Z,22.2
2022-09-21T12:06:58.456Z,22.1
2022-09-21T12:07:58.458Z,22
2022-09-21T12:08:58.471Z,21.9
2022-09-21T12:10:58.461Z,21.8
2022-09-21T12:11:58.470Z,21.7
2022-09-21T12:12:59.412Z,21.7
2022-09-21T12:13:58.468Z,21.6
2022-09-21T12:14:58.525Z,21.5
2022-09-21T12:15:58.464Z,21.4
2022-09-21T12:16:58.604Z,21.3
2022-09-21T12:17:58.467Z,21.2
2022-09-21T12:19:58.478Z,21.2
2022-09-21T12:20:58.463Z,21.2
2022-09-21T12:21:58.471Z,21.2
2022-09-21T12:22:58.493Z,21.2
2022-09-21T12:23:58.466Z,21.1
2022-09-21T12:24:58.462Z,21.1
2022-09-21T12:25:58.460Z,21.1
2022-09-21T12:26:58.470Z,21.1
2022-09-21T12:27:58.467Z,21
2022-09-21T12:28:58.466Z,20.9
2022-09-21T12:29:58.466Z,20.9
2022-09-21T12:31:58.470Z,20.9
2022-09-21T12:32:58.468Z,20.7
2022-09-21T12:33:58.469Z,20.7
2022-09-21T12:34:58.469Z,20.7
2022-09-21T12:35:58.546Z,20.7
2022-09-21T12:36:58.461Z,20.7
2022-09-21T12:37:58.465Z,20.7
2022-09-21T12:39:58.464Z,20.7
2022-09-21T12:40:58.463Z,20.7
2022-09-21T12:41:58.476Z,20.6
2022-09-21T12:42:58.469Z,20.6
2022-09-21T12:43:58.467Z,20.6
2022-09-21T12:44:58.472Z,20.6
2022-09-21T12:45:58.539Z,20.7
2022-09-21T12:46:58.470Z,20.7
2022-09-21T12:47:58.472Z,20.7
2022-09-21T12:48:58.471Z,20.6
2022-09-21T12:51:02.420Z,20.6
2022-09-21T12:51:58.481Z,20.7
2022-09-21T12:52:58.469Z,20.7
2022-09-21T12:53:58.493Z,20.7
2022-09-21T12:54:58.469Z,20.8
2022-09-21T12:55:58.479Z,20.8
2022-09-21T12:56:58.503Z,20.8
2022-09-21T12:58:14.491Z,20.8
2022-09-21T12:58:58.563Z,20.9
2022-09-21T12:59:58.461Z,20.9
2022-09-21T13:00:58.692Z,20.9
2022-09-21T13:01:58.560Z,21
2022-09-21T13:02:58.481Z,21
2022-09-21T13:03:58.515Z,21.1
2022-09-21T13:04:58.483Z,21.1
2022-09-21T13:06:58.471Z,21.2
2022-09-21T13:07:58.469Z,21.3
2022-09-21T13:08:58.470Z,21.3
2022-09-21T13:09:58.477Z,21.3
2022-09-21T13:10:58.488Z,21.3
2022-09-21T13:11:58.469Z,21.4
2022-09-21T13:12:58.474Z,21.4
2022-09-21T13:13:58.475Z,21.4
2022-09-21T13:14:58.472Z,21.4
2022-09-21T13:15:58.468Z,21.5
2022-09-21T13:16:58.580Z,21.5
2022-09-21T13:17:58.473Z,21.6
2022-09-21T13:18:58.470Z,21.7
2022-09-21T13:19:58.481Z,21.7
2022-09-21T13:20:58.482Z,21.8
2022-09-21T13:21:58.474Z,21.8
2022-09-21T13:23:58.483Z,21.8
2022-09-21T13:24:58.512Z,21.8
2022-09-21T13:25:58.482Z,21.8
2022-09-21T13:27:58.484Z,21.8
2022-09-21T13:28:58.481Z,21.9
2022-09-21T13:29:58.535Z,21.8
2022-09-21T13:30:58.480Z,21.8
2022-09-21T13:31:58.532Z,21.7
2022-09-21T13:32:58.481Z,21.7
2022-09-21T13:33:58.480Z,21.7
2022-09-21T13:34:58.504Z,21.6
2022-09-21T13:35:58.485Z,21.5
2022-09-21T13:36:58.482Z,21.4
2022-09-21T13:37:58.484Z,21.3
2022-09-21T13:38:58.570Z,21.2
2022-09-21T13:39:58.489Z,21.1
2022-09-21T13:40:58.489Z,21
2022-09-21T13:42:03.113Z,20.9
2022-09-21T13:42:58.540Z,20.7
2022-09-21T13:44:01.237Z,20.4
2022-09-21T13:44:58.492Z,20.2
2022-09-21T13:45:58.562Z,20.2
2022-09-21T13:46:58.492Z,20.1
2022-09-21T13:47:58.511Z,20
2022-09-21T13:48:58.488Z,20
2022-09-21T13:50:00.842Z,19.8
2022-09-21T13:50:58.494Z,19.7
2022-09-21T13:51:58.488Z,19.6
2022-09-21T13:52:58.486Z,19.5
2022-09-21T13:53:58.591Z,19.5
2022-09-21T13:54:58.482Z,19.5
2022-09-21T13:55:58.481Z,19.6
2022-09-21T13:56:58.489Z,19.6
2022-09-21T13:57:58.489Z,19.7
2022-09-21T13:58:58.476Z,19.7
2022-09-21T13:59:58.487Z,19.8
2022-09-21T14:00:58.529Z,19.7
2022-09-21T14:01:58.602Z,19.5
2022-09-21T14:02:58.546Z,19.5
2022-09-21T14:04:58.491Z,19.5
2022-09-21T14:05:58.481Z,19.5
2022-09-21T14:06:58.559Z,19.5
2022-09-21T14:07:58.487Z,19.5
2022-09-21T14:08:58.575Z,19.6
2022-09-21T14:09:58.566Z,19.6
2022-09-21T14:10:58.537Z,19.6
2022-09-21T14:11:58.543Z,19.6
2022-09-21T14:12:58.549Z,19.7
2022-09-21T14:13:58.536Z,19.7
2022-09-21T14:14:58.539Z,19.7
2022-09-21T14:15:58.571Z,19.7
2022-09-21T14:16:58.556Z,19.7
2022-09-21T14:17:58.545Z,19.7
2022-09-21T14:18:58.615Z,19.7
2022-09-21T14:20:58.540Z,19.7
2022-09-21T14:21:58.548Z,19.7
2022-09-21T14:22:58.542Z,19.7
2022-09-21T14:23:58.537Z,19.7
2022-09-21T14:25:58.544Z,19.7
2022-09-21T14:27:01.661Z,19.6
2022-09-21T14:27:58.547Z,19.5
2022-09-21T14:28:58.577Z,19.4
2022-09-21T14:29:58.549Z,19.4
2022-09-21T14:30:58.551Z,19.3
2022-09-21T14:31:58.631Z,19.3
2022-09-21T14:32:58.542Z,19.3
2022-09-21T14:33:58.550Z,19.2
2022-09-21T14:34:58.586Z,19.2
2022-09-21T14:35:58.548Z,19.2
2022-09-21T14:36:58.549Z,19.2
2022-09-21T14:37:58.544Z,19.2
2022-09-21T14:39:58.549Z,19.2
2022-09-21T14:40:58.550Z,19.2
2022-09-21T14:41:58.558Z,19.2
2022-09-21T14:42:58.561Z,19.2
2022-09-21T14:43:58.559Z,19.2
2022-09-21T14:45:08.826Z,19.2
2022-09-21T14:47:08.896Z,19.1
2022-09-21T14:47:58.555Z,19.1
2022-09-21T14:48:58.549Z,19.1
2022-09-21T14:50:01.682Z,19.1
2022-09-21T14:50:58.557Z,19.1
2022-09-21T14:52:14.265Z,19.1
2022-09-21T14:52:58.547Z,19.1
2022-09-21T14:53:58.546Z,19.1
2022-09-21T14:54:58.551Z,19.1
2022-09-21T14:55:58.552Z,19.1
2022-09-21T14:56:58.571Z,19.1
2022-09-21T14:57:58.555Z,19.1
2022-09-21T14:58:58.560Z,19.1
2022-09-21T15:00:58.596Z,19.1
2022-09-21T15:01:58.555Z,19.1
2022-09-21T15:02:58.555Z,19.1
2022-09-21T15:03:58.598Z,19.1
2022-09-21T15:04:58.553Z,19.1
2022-09-21T15:05:58.573Z,19.1
2022-09-21T15:06:58.556Z,19.1
2022-09-21T15:07:58.550Z,19.1
2022-09-21T15:08:58.603Z,19.1
2022-09-21T15:09:58.549Z,19.1
2022-09-21T15:10:58.553Z,19.1
2022-09-21T15:11:58.551Z,19.1
2022-09-21T15:12:58.564Z,19.1
2022-09-21T15:13:58.578Z,19
2022-09-21T15:14:58.558Z,19
2022-09-21T15:15:58.565Z,19
2022-09-21T15:16:58.554Z,19
2022-09-21T15:17:59.611Z,19.1
2022-09-21T15:18:58.561Z,19.1
2022-09-21T15:19:58.569Z,19.1
2022-09-21T15:21:58.558Z,19.1
2022-09-21T15:22:58.552Z,19.1
2022-09-21T15:23:58.554Z,19.1
2022-09-21T15:24:58.561Z,19.1
2022-09-21T15:25:58.573Z,19.1
2022-09-21T15:26:58.564Z,19.1
2022-09-21T15:27:58.563Z,19.1
2022-09-21T15:29:09.361Z,19.1
2022-09-21T15:29:58.570Z,19.1
2022-09-21T15:30:58.589Z,19.1
2022-09-21T15:31:58.627Z,19.1
2022-09-21T15:32:58.571Z,19.1
2022-09-21T15:33:58.556Z,19.1
2022-09-21T15:34:58.555Z,19.1
2022-09-21T15:35:58.561Z,19.1
2022-09-21T15:36:58.588Z,19
2022-09-21T15:37:58.587Z,19
2022-09-21T15:38:58.607Z,19
2022-09-21T15:39:58.560Z,19
2022-09-21T15:41:03.422Z,19
2022-09-21T15:41:58.565Z,18.9
2022-09-21T15:42:58.561Z,18.9
2022-09-21T15:43:58.583Z,18.8
2022-09-21T15:44:58.563Z,18.8
2022-09-21T15:45:58.559Z,18.8
2022-09-21T15:46:58.601Z,18.7
2022-09-21T15:47:58.557Z,18.7
2022-09-21T15:49:58.578Z,18.6
2022-09-21T15:50:58.582Z,18.5
2022-09-21T15:51:58.585Z,18.5
2022-09-21T15:52:58.568Z,18.5
2022-09-21T15:53:58.561Z,18.4
2022-09-21T15:54:58.563Z,18.4
2022-09-21T15:56:58.568Z,18.3
2022-09-21T15:57:58.559Z,18.3
2022-09-21T15:58:58.560Z,18.2
2022-09-21T15:59:58.587Z,18.2
2022-09-21T16:00:58.607Z,18.1
2022-09-21T16:01:58.564Z,18.1
2022-09-21T16:02:58.561Z,18.1
2022-09-21T16:03:58.576Z,18.1
2022-09-21T16:04:58.569Z,18
2022-09-21T16:05:58.565Z,18
2022-09-21T16:06:58.557Z,18
2022-09-21T16:07:58.594Z,18
2022-09-21T16:08:58.570Z,17.9
2022-09-21T16:09:58.569Z,17.9
2022-09-21T16:11:58.561Z,17.9
2022-09-21T16:12:58.569Z,17.9
2022-09-21T16:13:58.723Z,17.9
2022-09-21T16:15:03.226Z,17.8
2022-09-21T16:15:58.651Z,17.8
2022-09-21T16:16:59.571Z,17.8
2022-09-21T16:17:58.563Z,17.8
2022-09-21T16:18:58.568Z,17.8
2022-09-21T16:19:58.580Z,17.8
2022-09-21T16:21:00.206Z,17.7
2022-09-21T16:21:58.583Z,17.7
2022-09-21T16:22:58.582Z,17.7
2022-09-21T16:23:58.616Z,17.7
2022-09-21T16:24:58.570Z,17.6
2022-09-21T16:25:58.564Z,17.6
2022-09-21T16:26:58.577Z,17.5
2022-09-21T16:27:58.575Z,17.5
2022-09-21T16:28:58.572Z,17.5
2022-09-21T16:29:58.573Z,17.5
2022-09-21T16:30:58.578Z,17.5
2022-09-21T16:31:58.608Z,17.5
2022-09-21T16:32:58.573Z,17.4
2022-09-21T16:33:58.573Z,17.4
2022-09-21T16:34:58.588Z,17.4
2022-09-21T16:35:58.580Z,17.4
2022-09-21T16:36:58.569Z,17.3
2022-09-21T16:37:58.580Z,17.3
2022-09-21T16:38:58.638Z,17.3
2022-09-21T16:39:58.604Z,17.2
2022-09-21T16:40:58.576Z,17.2
2022-09-21T16:41:59.156Z,17.2
2022-09-21T16:42:58.590Z,17.2
2022-09-21T16:43:58.573Z,17.2
2022-09-21T16:44:58.577Z,17.2
2022-09-21T16:45:58.575Z,17.1
2022-09-21T16:46:58.651Z,17.1
2022-09-21T16:47:58.572Z,17.1
2022-09-21T16:48:58.575Z,17.1
2022-09-21T16:49:58.581Z,17.1
2022-09-21T16:50:58.612Z,17.1
2022-09-21T16:51:58.582Z,17
2022-09-21T16:52:58.587Z,17
2022-09-21T16:53:58.693Z,17
2022-09-21T16:54:58.713Z,17
2022-09-21T16:56:58.579Z,16.9
2022-09-21T16:57:58.596Z,16.9
2022-09-21T16:58:58.584Z,16.9
2022-09-21T16:59:58.584Z,16.9
2022-09-21T17:01:00.924Z,16.8
2022-09-21T17:01:58.656Z,16.8
2022-09-21T17:02:58.577Z,16.8
2022-09-21T17:03:58.594Z,16.8
2022-09-21T17:04:58.577Z,16.7
2022-09-21T17:05:58.580Z,16.7
2022-09-21T17:06:58.577Z,16.7
2022-09-21T17:07:58.596Z,16.7
2022-09-21T17:08:58.676Z,16.6
2022-09-21T17:09:58.600Z,16.6
2022-09-21T17:10:58.580Z,16.6
2022-09-21T17:11:58.580Z,16.5
2022-09-21T17:12:58.586Z,16.5
2022-09-21T17:13:58.587Z,16.5
2022-09-21T17:14:58.601Z,16.5
2022-09-21T17:15:58.688Z,16.4
2022-09-21T17:17:58.595Z,16.4
2022-09-21T17:18:58.592Z,16.4
2022-09-21T17:19:58.579Z,16.3
2022-09-21T17:20:58.577Z,16.3
2022-09-21T17:22:58.596Z,16.2
2022-09-21T17:23:58.582Z,16.2
2022-09-21T17:24:58.579Z,16.2
2022-09-21T17:26:58.602Z,16.1
2022-09-21T17:27:58.591Z,16.1
2022-09-21T17:28:58.585Z,16
2022-09-21T17:29:58.590Z,16
2022-09-21T17:30:58.605Z,16
2022-09-21T17:31:58.580Z,16
2022-09-21T17:32:58.588Z,16
2022-09-21T17:33:58.604Z,16
2022-09-21T17:34:58.591Z,15.9
2022-09-21T17:36:58.592Z,15.9
2022-09-21T17:37:58.582Z,15.9
2022-09-21T17:38:58.628Z,15.9
2022-09-21T17:39:58.586Z,15.8
2022-09-21T17:40:58.638Z,15.8
2022-09-21T17:43:58.597Z,15.7
2022-09-21T17:44:58.583Z,15.7
2022-09-21T17:45:58.623Z,15.6
2022-09-21T17:46:58.578Z,15.6
2022-09-21T17:48:58.612Z,15.5
2022-09-21T17:49:58.590Z,15.5
2022-09-21T17:50:58.600Z,15.5
2022-09-21T17:51:58.580Z,15.5
2022-09-21T17:52:58.584Z,15.5
2022-09-21T17:55:02.312Z,15.5
2022-09-21T17:55:58.585Z,15.4
2022-09-21T17:56:58.582Z,15.4
2022-09-21T17:57:58.578Z,15.4
2022-09-21T17:58:58.588Z,15.4
2022-09-21T17:59:58.579Z,15.4
2022-09-21T18:00:58.589Z,15.4
2022-09-21T18:01:58.629Z,15.3
2022-09-21T18:02:58.671Z,15.3
2022-09-21T18:04:58.607Z,15.3
2022-09-21T18:05:58.601Z,15.3
2022-09-21T18:06:58.586Z,15.2
2022-09-21T18:07:58.586Z,15.2
2022-09-21T18:08:58.696Z,15.2
2022-09-21T18:09:59.101Z,15.2
2022-09-21T18:10:58.599Z,15.2
2022-09-21T18:11:58.605Z,15.1
2022-09-21T18:12:58.589Z,15.1
2022-09-21T18:13:58.579Z,15.1
2022-09-21T18:14:58.582Z,15.1
2022-09-21T18:15:58.663Z,15.1
2022-09-21T18:16:58.581Z,15
2022-09-21T18:17:58.576Z,15
2022-09-21T18:18:58.584Z,15
2022-09-21T18:19:58.584Z,15
2022-09-21T18:20:58.595Z,14.9
2022-09-21T18:21:58.585Z,14.9
2022-09-21T18:22:58.598Z,14.9
2022-09-21T18:23:58.594Z,14.9
2022-09-21T18:24:58.582Z,14.9
2022-09-21T18:25:58.582Z,14.9
2022-09-21T18:26:58.595Z,14.8
2022-09-21T18:27:58.585Z,14.8
2022-09-21T18:28:58.589Z,14.8
2022-09-21T18:29:58.580Z,14.8
2022-09-21T18:30:58.656Z,14.8
2022-09-21T18:31:58.576Z,14.8
2022-09-21T18:32:58.587Z,14.7
2022-09-21T18:33:58.584Z,14.7
2022-09-21T18:34:58.579Z,14.7
2022-09-21T18:35:58.592Z,14.7
2022-09-21T18:36:58.581Z,14.7
2022-09-21T18:37:58.586Z,14.7
2022-09-21T18:39:58.605Z,14.6
2022-09-21T18:41:52.697Z,14.6
2022-09-21T18:42:58.608Z,14.6
2022-09-21T18:43:58.586Z,14.5
2022-09-21T18:44:58.622Z,14.5
2022-09-21T18:45:58.638Z,14.5
2022-09-21T18:46:58.596Z,14.5
2022-09-21T18:47:58.584Z,14.5
2022-09-21T18:48:58.604Z,14.5
2022-09-21T18:49:58.596Z,14.4
2022-09-21T18:50:58.603Z,14.4
2022-09-21T18:51:59.488Z,14.4
2022-09-21T18:52:58.585Z,14.4
2022-09-21T18:53:58.694Z,14.4
2022-09-21T18:54:58.597Z,14.4
2022-09-21T18:55:58.584Z,14.4
2022-09-21T18:57:58.596Z,14.4
2022-09-21T18:58:58.597Z,14.4
2022-09-21T18:59:58.593Z,14.3
2022-09-21T19:00:58.590Z,14.3
2022-09-21T19:03:16.433Z,14.3
2022-09-21T19:03:58.588Z,14.3
2022-09-21T19:04:58.592Z,14.3
2022-09-21T19:05:58.582Z,14.2
2022-09-21T19:06:58.582Z,14.2
2022-09-21T19:07:58.589Z,14.2
2022-09-21T19:08:58.648Z,14.2
2022-09-21T19:09:58.588Z,14.1
2022-09-21T19:10:58.589Z,14.1
2022-09-21T19:11:58.584Z,14.1
2022-09-21T19:12:58.595Z,14.1
2022-09-21T19:13:58.611Z,14.1
2022-09-21T19:14:58.598Z,14
2022-09-21T19:16:01.342Z,14
2022-09-21T19:16:58.580Z,14
2022-09-21T19:17:58.588Z,14
2022-09-21T19:18:58.589Z,14
2022-09-21T19:19:58.594Z,14
2022-09-21T19:20:58.595Z,14
2022-09-21T19:21:58.586Z,14
2022-09-21T19:22:58.599Z,14
2022-09-21T19:23:58.666Z,14
2022-09-21T19:24:58.592Z,14
2022-09-21T19:25:58.592Z,14
2022-09-21T19:26:58.603Z,14
2022-09-21T19:27:58.596Z,14
2022-09-21T19:28:58.593Z,13.9
2022-09-21T19:29:58.597Z,13.9
2022-09-21T19:31:00.443Z,13.9
2022-09-21T19:31:58.601Z,13.9
2022-09-21T19:32:58.614Z,13.9
2022-09-21T19:33:58.588Z,13.9
2022-09-21T19:34:58.594Z,13.9
2022-09-21T19:35:58.586Z,13.9
2022-09-21T19:37:58.587Z,13.8
2022-09-21T19:38:58.664Z,13.8
2022-09-21T19:39:58.591Z,13.8
2022-09-21T19:40:58.586Z,13.8
2022-09-21T19:41:58.593Z,13.8
2022-09-21T19:42:58.590Z,13.8
2022-09-21T19:43:58.593Z,13.8
2022-09-21T19:44:58.627Z,13.8
2022-09-21T19:45:58.661Z,13.8
2022-09-21T19:46:58.598Z,13.8
2022-09-21T19:47:58.597Z,13.7
2022-09-21T19:48:58.590Z,13.7
2022-09-21T19:49:58.593Z,13.7
2022-09-21T19:50:58.664Z,13.7
2022-09-21T19:51:58.599Z,13.7
2022-09-21T19:52:58.601Z,13.7
2022-09-21T19:53:58.697Z,13.7
2022-09-21T19:54:58.605Z,13.6
2022-09-21T19:55:58.592Z,13.6
2022-09-21T19:56:58.592Z,13.6
2022-09-21T19:58:58.601Z,13.6
2022-09-21T20:00:58.604Z,13.6
2022-09-21T20:01:58.594Z,13.6
2022-09-21T20:02:58.778Z,13.6
2022-09-21T20:03:58.586Z,13.6
2022-09-21T20:04:58.601Z,13.5
2022-09-21T20:05:58.592Z,13.5
2022-09-21T20:06:58.590Z,13.5
2022-09-21T20:07:58.591Z,13.5
2022-09-21T20:08:58.637Z,13.5
2022-09-21T20:09:58.603Z,13.5
2022-09-21T20:10:58.592Z,13.5
2022-09-21T20:11:58.586Z,13.4
2022-09-21T20:12:58.595Z,13.4
2022-09-21T20:13:58.595Z,13.4
2022-09-21T20:14:58.605Z,13.4
2022-09-21T20:15:58.611Z,13.4
2022-09-21T20:16:58.692Z,13.4
2022-09-21T20:17:58.599Z,13.4
2022-09-21T20:18:58.607Z,13.3
2022-09-21T20:19:58.593Z,13.4
2022-09-21T20:21:58.596Z,13.3
2022-09-21T20:22:58.617Z,13.3
2022-09-21T20:23:58.685Z,13.3
2022-09-21T20:24:58.603Z,13.3
2022-09-21T20:25:58.603Z,13.3
2022-09-21T20:26:58.587Z,13.2
2022-09-21T20:27:58.602Z,13.2
2022-09-21T20:28:58.596Z,13.2
2022-09-21T20:30:58.654Z,13.2
2022-09-21T20:31:58.602Z,13.2
2022-09-21T20:32:58.592Z,13.2
2022-09-21T20:33:58.592Z,13.2
2022-09-21T20:34:58.588Z,13.1